Time;durP1;ratioP1;P1;durP2;ratioP2;P2;SDS_P1;SDS_P2;PMS_P1;PMS_P2;Temp;Humidity;BMP_temperature;BMP_pressure;BME280_temperature;BME280_humidity;BME280_pressure;Samples;Min_cycle;Max_cycle;Signal;HPM_P1;HPM_P2
2022/06/24 00:01:14;;;;;;;5.85;2.15;;;21.00;97.20;;;;;;4993080;28;20521;-80
2022/06/24 00:04:00;;;;;;;5.65;2.20;;;20.90;97.60;;;;;;4993312;28;20053;-80
2022/06/24 00:06:47;;;;;;;5.70;2.13;;;20.80;97.50;;;;;;4989156;28;20045;-80
2022/06/24 00:09:33;;;;;;;4.15;2.40;;;20.80;97.30;;;;;;4992433;28;20060;-80
2022/06/24 00:12:24;;;;;;;5.55;2.45;;;20.80;97.30;;;;;;4993901;28;20057;-80
2022/06/24 00:15:10;;;;;;;4.85;1.83;;;20.70;97.30;;;;;;4993100;28;20073;-80
2022/06/24 00:17:57;;;;;;;4.97;1.77;;;20.70;97.30;;;;;;4993034;28;20046;-80
2022/06/24 00:20:45;;;;;;;3.83;1.90;;;20.70;97.20;;;;;;4993673;28;20068;-80
2022/06/24 00:23:32;;;;;;;4.05;2.08;;;20.60;97.10;;;;;;4996484;28;20049;-80
2022/06/24 00:26:18;;;;;;;4.05;2.03;;;20.60;97.10;;;;;;5009497;28;20092;-79
2022/06/24 00:29:04;;;;;;;3.22;2.03;;;20.60;97.00;;;;;;5009362;28;20046;-80
2022/06/24 00:32:03;;;;;;;4.25;2.20;;;20.60;97.20;;;;;;4986394;28;20072;-80
2022/06/24 00:35:04;;;;;;;5.25;2.72;;;20.60;97.70;;;;;;5008890;28;20088;-80
2022/06/24 00:37:50;;;;;;;7.30;2.28;;;20.50;98.50;;;;;;4985193;28;20046;-79
2022/06/24 00:40:37;;;;;;;11.95;2.50;;;20.40;98.90;;;;;;5008950;28;20046;-80
2022/06/24 00:43:31;;;;;;;6.85;2.70;;;20.40;99.30;;;;;;4992754;28;20704;-79
2022/06/24 00:46:33;;;;;;;4.90;2.05;;;20.30;99.80;;;;;;5009541;28;20164;-79
2022/06/24 00:49:25;;;;;;;4.85;1.92;;;20.30;99.60;;;;;;4993841;28;20069;-80
2022/06/24 00:52:12;;;;;;;3.88;1.92;;;20.20;99.10;;;;;;5000166;28;20065;-80
2022/06/24 00:54:58;;;;;;;7.03;2.50;;;20.10;98.90;;;;;;4996314;28;20050;-80
2022/06/24 00:57:44;;;;;;;3.75;1.98;;;20.10;98.40;;;;;;4995770;28;20117;-80
2022/06/24 01:00:32;;;;;;;6.97;2.38;;;20.10;97.80;;;;;;4995177;28;20486;-80
2022/06/24 01:03:18;;;;;;;4.88;2.00;;;20.20;97.20;;;;;;4998229;28;20058;-80
2022/06/24 01:06:05;;;;;;;5.75;2.30;;;20.30;96.70;;;;;;4996674;28;20046;-80
2022/06/24 01:08:51;;;;;;;4.50;2.10;;;20.30;96.40;;;;;;4995834;28;20050;-80
2022/06/24 01:11:42;;;;;;;4.72;2.60;;;20.50;96.10;;;;;;4995611;28;20145;-80
2022/06/24 01:14:28;;;;;;;4.38;1.75;;;20.50;95.90;;;;;;5012000;28;20561;-80
2022/06/24 01:17:14;;;;;;;3.95;1.92;;;20.50;95.70;;;;;;5011892;28;20089;-80
2022/06/24 01:20:01;;;;;;;4.90;2.05;;;20.50;95.70;;;;;;5007456;28;20064;-79
2022/06/24 01:22:47;;;;;;;4.50;2.42;;;20.60;95.70;;;;;;5014198;28;20049;-79
2022/06/24 01:25:33;;;;;;;5.28;2.25;;;20.60;95.50;;;;;;5014855;28;20050;-80
2022/06/24 01:28:19;;;;;;;5.07;1.95;;;20.60;95.30;;;;;;4995997;28;20049;-79
2022/06/24 01:31:05;;;;;;;4.85;2.15;;;20.60;95.30;;;;;;5013463;28;20050;-80
2022/06/24 01:33:51;;;;;;;5.65;2.50;;;20.60;95.50;;;;;;4995300;28;20134;-79
2022/06/24 01:36:38;;;;;;;5.88;2.25;;;20.50;95.90;;;;;;5013185;28;20473;-80
2022/06/24 01:39:24;;;;;;;5.95;2.20;;;20.40;96.10;;;;;;4995503;28;20466;-80
2022/06/24 01:42:11;;;;;;;7.25;2.33;;;20.20;96.40;;;;;;5014069;28;20442;-80
2022/06/24 01:44:57;;;;;;;7.63;2.45;;;20.10;96.70;;;;;;5013240;28;20064;-80
2022/06/24 01:47:43;;;;;;;6.32;2.35;;;20.10;96.90;;;;;;4995093;28;20057;-80
2022/06/24 01:50:29;;;;;;;6.30;2.17;;;20.00;96.90;;;;;;5013458;28;20140;-80
2022/06/24 01:53:15;;;;;;;4.35;2.25;;;19.90;97.00;;;;;;5012888;28;20494;-80
2022/06/24 01:56:02;;;;;;;5.18;2.47;;;19.80;97.20;;;;;;4995571;28;20437;-79
2022/06/24 01:58:48;;;;;;;6.50;2.50;;;19.80;97.20;;;;;;4987330;28;20092;-80
2022/06/24 02:01:35;;;;;;;5.82;2.50;;;19.70;97.20;;;;;;5011865;28;20053;-79
2022/06/24 02:04:21;;;;;;;4.55;2.38;;;19.60;97.30;;;;;;4995225;28;20060;-79
2022/06/24 02:07:07;;;;;;;5.05;2.13;;;19.60;97.40;;;;;;4997286;28;20057;-80
2022/06/24 02:16:04;;;;;;;5.43;2.28;;;19.50;97.90;;;;;;4994197;28;20053;-79
2022/06/24 02:18:50;;;;;;;4.20;2.38;;;19.40;97.90;;;;;;4994793;28;20041;-80
2022/06/24 02:21:37;;;;;;;5.07;2.20;;;19.30;98.50;;;;;;4995187;28;20201;-79
2022/06/24 02:24:23;;;;;;;8.85;2.40;;;19.20;98.80;;;;;;4994603;28;20057;-79
2022/06/24 02:27:09;;;;;;;6.78;2.55;;;19.20;98.90;;;;;;4995008;28;20100;-80
2022/06/24 02:29:55;;;;;;;5.40;2.30;;;19.20;98.70;;;;;;5011395;28;20050;-79
2022/06/24 02:32:41;;;;;;;4.90;2.30;;;19.20;98.50;;;;;;5011862;28;20054;-79
2022/06/24 02:35:28;;;;;;;4.22;2.15;;;19.20;98.30;;;;;;5013383;28;20042;-79
2022/06/24 02:38:14;;;;;;;3.72;2.25;;;19.20;98.10;;;;;;5011596;28;20050;-80
2022/06/24 02:41:01;;;;;;;4.68;2.53;;;19.20;98.10;;;;;;5012357;28;20049;-79
2022/06/24 02:43:47;;;;;;;5.47;2.42;;;19.20;98.20;;;;;;5010998;28;20149;-79
2022/06/24 02:46:33;;;;;;;8.25;3.03;;;19.20;98.30;;;;;;5011352;28;20061;-80
2022/06/24 02:49:19;;;;;;;5.32;2.70;;;19.20;98.20;;;;;;4994464;28;20042;-80
2022/06/24 02:52:07;;;;;;;5.00;2.30;;;19.20;98.00;;;;;;4994489;28;20434;-79
2022/06/24 02:54:53;;;;;;;4.18;2.40;;;19.30;98.20;;;;;;4998960;28;20060;-78
2022/06/24 02:57:39;;;;;;;7.82;2.53;;;19.30;98.50;;;;;;5011521;28;20108;-79
2022/06/24 03:00:25;;;;;;;5.30;2.33;;;19.30;98.40;;;;;;4994096;28;20064;-79
2022/06/24 03:03:13;;;;;;;6.63;2.72;;;19.30;98.20;;;;;;4994068;28;20050;-80
2022/06/24 03:06:00;;;;;;;4.80;2.13;;;19.30;98.20;;;;;;5010768;28;20054;-79
2022/06/24 03:08:46;;;;;;;3.88;2.10;;;19.30;98.20;;;;;;5011062;28;20089;-80
2022/06/24 03:11:32;;;;;;;4.95;2.63;;;19.30;98.20;;;;;;4993246;28;20053;-80
2022/06/24 03:14:18;;;;;;;6.53;2.58;;;19.40;98.20;;;;;;5011079;28;20496;-80
2022/06/24 03:17:04;;;;;;;6.00;2.53;;;19.40;98.10;;;;;;4996757;28;20058;-78
2022/06/24 03:19:50;;;;;;;5.15;2.95;;;19.40;98.00;;;;;;5012587;28;20072;-79
2022/06/24 03:22:37;;;;;;;4.75;2.97;;;19.40;97.80;;;;;;5011331;28;20098;-79
2022/06/24 03:25:23;;;;;;;6.18;3.00;;;19.50;97.40;;;;;;5008320;28;20057;-78
2022/06/24 03:28:09;;;;;;;6.35;2.70;;;19.50;97.20;;;;;;5011654;28;20081;-79
2022/06/24 03:30:55;;;;;;;4.93;2.22;;;19.60;97.10;;;;;;4991897;28;20084;-79
2022/06/24 03:33:42;;;;;;;5.93;2.97;;;19.60;97.10;;;;;;4995589;28;20060;-79
2022/06/24 03:36:28;;;;;;;5.57;2.50;;;19.60;97.20;;;;;;4998363;28;20049;-79
2022/06/24 03:39:14;;;;;;;6.18;2.97;;;19.70;97.20;;;;;;5010340;28;20133;-79
2022/06/24 03:42:00;;;;;;;4.38;2.30;;;19.70;97.50;;;;;;4993432;28;20525;-79
2022/06/24 03:44:46;;;;;;;4.57;2.38;;;19.70;97.70;;;;;;4980983;28;20578;-78
2022/06/24 03:47:33;;;;;;;5.68;2.60;;;19.70;97.60;;;;;;5011360;28;20061;-79
2022/06/24 03:50:19;;;;;;;6.95;2.72;;;19.70;97.50;;;;;;4993448;28;20132;-79
2022/06/24 03:53:05;;;;;;;6.10;2.70;;;19.80;97.40;;;;;;5009318;28;20053;-80
2022/06/24 03:55:52;;;;;;;5.72;2.95;;;19.80;97.20;;;;;;4979920;28;20565;-79
2022/06/24 03:58:38;;;;;;;6.32;3.00;;;19.90;97.20;;;;;;4992271;28;20061;-80
2022/06/24 04:01:24;;;;;;;4.78;2.70;;;19.90;97.10;;;;;;5010475;28;20129;-79
2022/06/24 04:04:10;;;;;;;9.35;3.50;;;19.90;97.00;;;;;;5009527;28;20406;-79
2022/06/24 04:06:57;;;;;;;5.53;3.03;;;20.00;97.20;;;;;;4988186;28;20085;-78
2022/06/24 04:09:43;;;;;;;5.80;2.60;;;19.90;97.10;;;;;;5011270;28;20057;-79
2022/06/24 04:12:29;;;;;;;8.95;3.15;;;20.00;97.20;;;;;;4979744;28;20115;-79
2022/06/24 04:15:17;;;;;;;5.63;2.65;;;19.90;97.20;;;;;;5011300;28;20081;-80
2022/06/24 04:18:03;;;;;;;5.60;2.95;;;20.00;97.30;;;;;;4979576;28;20058;-79
2022/06/24 04:20:49;;;;;;;9.50;4.13;;;20.00;97.10;;;;;;5004497;28;20054;-79
2022/06/24 04:23:35;;;;;;;5.60;2.78;;;20.00;97.20;;;;;;4997858;28;20053;-80
2022/06/24 04:26:21;;;;;;;5.47;2.97;;;20.00;97.20;;;;;;4996308;28;20049;-80
2022/06/24 04:29:07;;;;;;;7.68;3.15;;;20.10;97.40;;;;;;5014307;28;20576;-80
2022/06/24 04:31:54;;;;;;;7.68;3.38;;;20.20;97.20;;;;;;5014307;28;20046;-80
2022/06/24 04:34:40;;;;;;;6.22;3.13;;;20.20;97.10;;;;;;5014236;28;20046;-80
2022/06/24 04:37:27;;;;;;;8.82;3.75;;;20.20;97.20;;;;;;5014232;28;20077;-80
2022/06/24 04:40:13;;;;;;;5.70;3.55;;;20.20;98.00;;;;;;5015234;28;20050;-80
2022/06/24 04:42:59;;;;;;;7.88;4.53;;;20.20;99.30;;;;;;4996067;28;20061;-79
2022/06/24 04:45:46;;;;;;;10.10;5.10;;;20.20;99.90;;;;;;5014410;28;20057;-79
2022/06/24 04:48:33;;;;;;;7.70;4.38;;;20.20;99.90;;;;;;5013570;28;20085;-79
2022/06/24 04:51:19;;;;;;;7.18;4.18;;;20.20;99.90;;;;;;5014774;28;20068;-79
2022/06/24 04:54:05;;;;;;;5.95;4.43;;;20.30;99.90;;;;;;4996229;28;20136;-80
2022/06/24 04:56:51;;;;;;;7.57;4.20;;;20.50;99.90;;;;;;5014491;28;20116;-80
2022/06/24 04:59:38;;;;;;;6.20;4.00;;;20.50;99.90;;;;;;4996766;28;20054;-80
2022/06/24 05:02:24;;;;;;;8.43;4.55;;;20.60;99.40;;;;;;4996246;28;20046;-80
2022/06/24 05:05:11;;;;;;;7.93;4.82;;;20.70;99.30;;;;;;5013447;28;20144;-79
2022/06/24 05:07:58;;;;;;;6.20;3.88;;;20.70;99.90;;;;;;4982327;28;20107;-80
2022/06/24 05:10:44;;;;;;;9.15;4.25;;;20.80;99.90;;;;;;4995328;28;20049;-80
2022/06/24 05:13:30;;;;;;;9.90;5.35;;;20.90;99.80;;;;;;4999923;28;20049;-80
2022/06/24 05:16:16;;;;;;;11.85;6.25;;;20.80;99.90;;;;;;5016058;28;20054;-78
2022/06/24 05:19:02;;;;;;;14.15;8.05;;;20.70;99.90;;;;;;5013755;28;20050;-80
2022/06/24 05:21:48;;;;;;;15.73;10.40;;;20.80;99.90;;;;;;5013924;28;20445;-80
2022/06/24 05:24:34;;;;;;;23.65;12.70;;;20.90;99.90;;;;;;4982490;28;20046;-78
2022/06/24 05:27:20;;;;;;;21.67;11.43;;;21.00;99.90;;;;;;5012632;28;20046;-79
2022/06/24 05:30:07;;;;;;;16.75;11.40;;;21.00;99.90;;;;;;4996255;28;20488;-78
2022/06/24 05:32:53;;;;;;;18.55;10.25;;;21.00;99.90;;;;;;5014315;28;20049;-80
2022/06/24 05:35:40;;;;;;;21.27;9.88;;;21.00;99.90;;;;;;4996096;28;20116;-80
2022/06/24 05:38:26;;;;;;;18.70;8.75;;;21.10;99.90;;;;;;4996600;28;20092;-80
2022/06/24 05:41:14;;;;;;;10.30;5.43;;;21.10;99.90;;;;;;4982581;28;20042;-80
2022/06/24 05:44:01;;;;;;;15.73;5.30;;;21.10;99.90;;;;;;5012079;28;20190;-80
2022/06/24 05:46:47;;;;;;;12.55;4.63;;;21.20;99.90;;;;;;5013916;28;20405;-78
2022/06/24 05:49:33;;;;;;;19.65;6.28;;;21.20;99.90;;;;;;4995900;28;20060;-80
2022/06/24 05:55:02;;;;;;;16.27;5.03;;;21.20;99.90;;;;;;4995185;28;20042;-79
2022/06/24 05:55:25;;;;;;;13.90;4.80;;;21.20;99.90;;;;;;4994956;28;20879;-80
2022/06/24 05:58:12;;;;;;;13.45;4.75;;;21.20;99.90;;;;;;4995706;28;20556;-80
2022/06/24 06:00:58;;;;;;;14.98;4.82;;;21.20;99.90;;;;;;5012451;28;20470;-80
2022/06/24 06:03:44;;;;;;;20.67;5.05;;;21.30;99.90;;;;;;4981685;28;20137;-79
2022/06/24 06:06:30;;;;;;;17.13;4.22;;;21.30;99.90;;;;;;5013160;28;20050;-79
2022/06/24 06:09:17;;;;;;;15.48;4.43;;;21.20;99.90;;;;;;5013019;28;20060;-79
2022/06/24 06:12:03;;;;;;;20.48;5.35;;;21.30;99.90;;;;;;4982739;28;20064;-79
2022/06/24 06:14:49;;;;;;;18.75;4.43;;;21.30;99.90;;;;;;5014124;28;20418;-78
2022/06/24 06:17:35;;;;;;;22.38;5.53;;;21.10;99.90;;;;;;5012425;28;20088;-80
2022/06/24 06:20:21;;;;;;;13.18;4.40;;;20.90;99.90;;;;;;5013236;28;20045;-79
2022/06/24 06:23:08;;;;;;;17.52;4.18;;;20.90;99.90;;;;;;4982521;28;20057;-79
2022/06/24 06:25:58;;;;;;;17.63;4.43;;;20.70;99.90;;;;;;4981317;28;20565;-79
2022/06/24 06:28:45;;;;;;;18.55;5.00;;;20.60;99.90;;;;;;5012636;28;20057;-79
2022/06/24 06:31:31;;;;;;;16.10;4.65;;;20.50;99.90;;;;;;5013101;28;20045;-79
2022/06/24 06:34:19;;;;;;;21.85;5.18;;;20.40;99.90;;;;;;5012872;28;20054;-80
2022/06/24 06:37:05;;;;;;;16.45;3.63;;;20.20;99.90;;;;;;4981006;28;20042;-79
2022/06/24 06:39:51;;;;;;;15.15;3.50;;;20.10;99.90;;;;;;5012363;28;20046;-79
2022/06/24 06:42:37;;;;;;;13.02;2.92;;;20.00;99.90;;;;;;4995152;28;20058;-79
2022/06/24 06:45:23;;;;;;;15.10;4.32;;;19.80;99.90;;;;;;5012345;28;20050;-79
2022/06/24 06:48:09;;;;;;;32.40;7.72;;;19.70;99.90;;;;;;5012224;28;20502;-78
2022/06/24 06:50:59;;;;;;;12.52;4.40;;;19.70;99.90;;;;;;4982390;28;20486;-78
2022/06/24 06:53:45;;;;;;;10.68;4.10;;;19.70;99.90;;;;;;5012126;28;20065;-78
2022/06/24 06:56:31;;;;;;;16.83;4.40;;;19.70;99.90;;;;;;5011633;28;20112;-79
2022/06/24 06:59:17;;;;;;;13.48;4.10;;;19.60;99.90;;;;;;4993586;28;20466;-79
2022/06/24 07:02:04;;;;;;;14.48;4.15;;;19.70;99.90;;;;;;4993776;28;20045;-79
2022/06/24 07:04:50;;;;;;;19.33;4.78;;;19.70;99.90;;;;;;5011567;28;20041;-80
2022/06/24 07:07:36;;;;;;;16.17;4.68;;;19.70;99.90;;;;;;5011597;28;20390;-80
2022/06/24 07:10:22;;;;;;;17.55;5.13;;;19.60;99.90;;;;;;5011011;28;20394;-80
2022/06/24 07:13:09;;;;;;;13.60;4.35;;;19.60;99.90;;;;;;5012890;28;20049;-80
2022/06/24 07:15:55;;;;;;;15.02;5.10;;;19.60;99.90;;;;;;4994903;28;20585;-80
2022/06/24 07:18:41;;;;;;;13.60;4.38;;;19.60;99.90;;;;;;5011405;28;20045;-79
2022/06/24 07:21:28;;;;;;;12.40;4.50;;;19.60;99.90;;;;;;5010799;28;20498;-80
2022/06/24 07:24:14;;;;;;;10.73;3.80;;;19.60;99.90;;;;;;4981737;28;20060;-80
2022/06/24 07:27:08;;;;;;;12.48;4.32;;;19.60;99.90;;;;;;4994092;28;20049;-79
2022/06/24 07:29:54;;;;;;;11.43;4.20;;;19.60;99.90;;;;;;5012042;28;20057;-79
2022/06/24 07:32:40;;;;;;;8.75;3.60;;;19.70;99.90;;;;;;5011084;28;20050;-79
2022/06/24 07:35:27;;;;;;;11.70;4.32;;;19.70;99.90;;;;;;4994920;28;20050;-80
2022/06/24 07:38:13;;;;;;;8.48;3.67;;;19.60;99.90;;;;;;4993257;28;20052;-79
2022/06/24 07:40:59;;;;;;;12.48;3.72;;;19.50;99.90;;;;;;5009883;28;20470;-79
2022/06/24 07:43:45;;;;;;;11.30;3.40;;;19.50;99.90;;;;;;5010130;28;20046;-79
2022/06/24 07:46:31;;;;;;;12.10;3.45;;;19.40;99.90;;;;;;4993051;28;20045;-79
2022/06/24 07:49:18;;;;;;;10.55;3.67;;;19.30;99.90;;;;;;4992748;28;20054;-80
2022/06/24 07:52:05;;;;;;;10.27;3.92;;;19.30;99.90;;;;;;4996791;28;20058;-79
2022/06/24 07:56:56;;;;;;;10.73;4.25;;;19.30;99.90;;;;;;4993239;28;20050;-80
2022/06/24 07:57:57;;;;;;;14.25;4.38;;;19.30;99.90;;;;;;4993973;28;20053;-79
2022/06/24 08:00:43;;;;;;;10.25;3.85;;;19.30;99.90;;;;;;5011456;28;20054;-80
2022/06/24 08:03:29;;;;;;;9.80;3.83;;;19.20;99.90;;;;;;4993437;28;20500;-80
2022/06/24 08:06:15;;;;;;;8.98;3.72;;;19.20;99.90;;;;;;5009163;28;20053;-80
2022/06/24 08:09:03;;;;;;;7.85;3.30;;;19.20;99.90;;;;;;5010418;28;20045;-81
2022/06/24 08:11:50;;;;;;;13.25;3.85;;;19.20;99.90;;;;;;4992047;28;20082;-81
2022/06/24 08:14:36;;;;;;;14.18;4.45;;;19.30;99.90;;;;;;5011333;28;20498;-80
2022/06/24 08:17:23;;;;;;;9.18;4.00;;;19.40;99.90;;;;;;5009998;28;20108;-80
2022/06/24 08:20:09;;;;;;;17.98;4.55;;;19.50;99.90;;;;;;5010128;28;20050;-80
2022/06/24 08:22:55;;;;;;;11.57;3.83;;;19.50;99.90;;;;;;5013177;28;20061;-81
2022/06/24 08:25:42;;;;;;;9.73;4.07;;;19.60;99.90;;;;;;5010788;28;20573;-79
2022/06/24 08:28:28;;;;;;;8.70;3.88;;;19.70;99.90;;;;;;5009656;28;20390;-80
2022/06/24 08:31:14;;;;;;;9.85;4.18;;;19.70;99.90;;;;;;5009996;28;20060;-81
2022/06/24 08:34:00;;;;;;;9.45;4.63;;;19.80;99.90;;;;;;4992935;28;20053;-79
2022/06/24 08:36:46;;;;;;;9.48;4.53;;;19.70;99.90;;;;;;4979673;28;20054;-80
2022/06/24 08:39:32;;;;;;;10.60;3.90;;;19.60;99.90;;;;;;5009497;28;20401;-80
2022/06/24 08:42:19;;;;;;;9.75;4.40;;;19.70;99.90;;;;;;5008891;28;20502;-81
2022/06/24 08:45:06;;;;;;;8.30;4.15;;;19.70;99.90;;;;;;4991892;28;20573;-81
2022/06/24 08:47:54;;;;;;;8.07;4.30;;;19.80;99.90;;;;;;4986748;28;20061;-80
2022/06/24 08:50:40;;;;;;;11.65;5.35;;;19.80;99.90;;;;;;4991804;28;20057;-82
2022/06/24 08:53:27;;;;;;;9.13;3.35;;;19.90;99.90;;;;;;4992082;28;20058;-80
2022/06/24 08:56:13;;;;;;;8.70;3.88;;;19.90;99.90;;;;;;5010318;28;20080;-80
2022/06/24 08:59:00;;;;;;;6.78;3.22;;;19.80;99.90;;;;;;5009734;28;20892;-80
2022/06/24 09:01:47;;;;;;;5.97;3.63;;;19.70;99.90;;;;;;5010005;28;20062;-80
2022/06/24 09:04:33;;;;;;;6.93;3.47;;;19.70;99.90;;;;;;4993235;28;20053;-80
2022/06/24 09:07:26;;;;;;;10.13;3.75;;;19.70;99.90;;;;;;4979154;28;20054;-79
2022/06/24 09:10:13;;;;;;;10.63;5.53;;;19.60;99.90;;;;;;4993025;28;20149;-78
2022/06/24 09:12:59;;;;;;;9.82;4.40;;;19.70;99.90;;;;;;4996462;28;20053;-80
2022/06/24 09:15:53;;;;;;;9.73;4.43;;;19.80;99.90;;;;;;4995540;28;20061;-80
2022/06/24 09:18:40;;;;;;;9.43;4.07;;;19.90;99.90;;;;;;5000422;28;20042;-79
2022/06/24 09:21:30;;;;;;;10.05;4.45;;;19.90;99.90;;;;;;5010795;28;20097;-78
2022/06/24 09:24:16;;;;;;;8.70;4.07;;;19.90;99.90;;;;;;4996349;28;20430;-78
2022/06/24 09:27:04;;;;;;;10.55;4.32;;;20.00;99.90;;;;;;4995457;28;20506;-80
2022/06/24 09:29:51;;;;;;;12.23;4.88;;;20.00;99.90;;;;;;4989596;28;20052;-79
2022/06/24 09:32:50;;;;;;;10.82;4.53;;;20.00;99.90;;;;;;4982397;28;20054;-78
2022/06/24 09:35:36;;;;;;;12.10;4.25;;;19.90;99.90;;;;;;5015371;28;20058;-80
2022/06/24 09:38:25;;;;;;;11.15;4.80;;;20.00;99.90;;;;;;5013434;28;20045;-79
2022/06/24 09:41:11;;;;;;;10.68;4.47;;;20.10;99.90;;;;;;5012987;28;20057;-79
2022/06/24 09:44:01;;;;;;;12.77;5.53;;;20.10;99.90;;;;;;5011957;28;20104;-79
2022/06/24 09:46:48;;;;;;;11.32;5.00;;;20.20;99.90;;;;;;5013285;28;20620;-79
2022/06/24 09:49:34;;;;;;;9.13;4.63;;;20.20;99.90;;;;;;4996015;28;20042;-79
2022/06/24 09:52:20;;;;;;;10.25;4.57;;;20.20;99.90;;;;;;4982732;28;20042;-80
2022/06/24 09:55:07;;;;;;;9.00;4.50;;;20.10;99.90;;;;;;4995550;28;20460;-79
2022/06/24 09:57:54;;;;;;;10.18;4.97;;;20.10;99.90;;;;;;5562408;22;20045;-80
2022/06/24 10:00:41;;;;;;;8.95;4.35;;;20.10;99.90;;;;;;5051562;28;20127;-81
2022/06/24 10:03:28;;;;;;;12.95;6.05;;;20.10;99.90;;;;;;5036552;28;20049;-80
2022/06/24 10:06:14;;;;;;;8.90;4.60;;;20.00;99.90;;;;;;5050610;28;20053;-80
2022/06/24 10:09:04;;;;;;;9.00;5.00;;;19.80;99.90;;;;;;5051509;28;20048;-80
2022/06/24 10:11:53;;;;;;;11.43;5.22;;;19.80;99.90;;;;;;5036536;28;20556;-81
2022/06/24 10:14:40;;;;;;;10.48;6.05;;;19.80;99.90;;;;;;5050959;28;20088;-81
2022/06/24 10:17:28;;;;;;;8.00;4.60;;;19.70;99.90;;;;;;5036165;28;20048;-81
2022/06/24 10:20:16;;;;;;;13.02;4.82;;;19.70;99.90;;;;;;5052364;28;20045;-81
2022/06/24 10:23:02;;;;;;;10.73;5.03;;;19.70;99.90;;;;;;5051512;28;20056;-80
2022/06/24 10:25:48;;;;;;;12.18;4.70;;;19.60;99.90;;;;;;5050743;28;20451;-81
2022/06/24 10:28:57;;;;;;;8.00;4.13;;;19.60;99.90;;;;;;5050109;28;20045;-79
2022/06/24 10:31:53;;;;;;;15.48;5.65;;;19.50;99.90;;;;;;5051085;28;20060;-79
2022/06/24 10:34:42;;;;;;;12.23;4.78;;;19.40;99.90;;;;;;5051296;28;20041;-79
2022/06/24 10:37:29;;;;;;;14.57;5.85;;;19.40;99.90;;;;;;5050916;28;20053;-81
2022/06/24 10:40:24;;;;;;;11.18;4.75;;;19.30;99.90;;;;;;5053599;28;20474;-80
2022/06/24 10:43:10;;;;;;;9.30;5.15;;;19.30;99.90;;;;;;5050664;28;20404;-80
2022/06/24 10:46:11;;;;;;;10.52;3.80;;;19.20;99.90;;;;;;5051175;28;20045;-82
2022/06/24 10:48:59;;;;;;;8.13;3.83;;;19.10;99.90;;;;;;5053090;28;20041;-82
2022/06/24 10:51:46;;;;;;;9.27;3.92;;;19.00;99.90;;;;;;5050681;28;20064;-79
2022/06/24 10:54:32;;;;;;;8.38;2.50;;;19.00;99.90;;;;;;5050308;28;20143;-79
2022/06/24 10:57:18;;;;;;;6.80;2.60;;;18.70;99.90;;;;;;5050142;28;20120;-80
2022/06/24 11:00:12;;;;;;;8.00;2.55;;;18.70;99.90;;;;;;5051450;28;20139;-80
2022/06/24 11:03:04;;;;;;;7.37;3.23;;;18.60;99.90;;;;;;5050045;28;20045;-81
2022/06/24 11:05:53;;;;;;;7.57;2.70;;;18.60;99.90;;;;;;5050478;28;20083;-80
2022/06/24 11:08:39;;;;;;;6.15;2.75;;;18.50;99.90;;;;;;5051824;28;20055;-80
2022/06/24 11:11:30;;;;;;;5.75;2.72;;;18.50;99.90;;;;;;5049379;28;20095;-80
2022/06/24 11:14:26;;;;;;;7.30;2.97;;;18.60;99.90;;;;;;5049767;28;20495;-79
2022/06/24 11:17:12;;;;;;;6.75;3.05;;;18.60;99.90;;;;;;5066982;28;20125;-80
2022/06/24 11:19:58;;;;;;;7.32;2.83;;;18.70;99.90;;;;;;5066008;28;20049;-81
2022/06/24 11:22:47;;;;;;;6.50;3.20;;;18.70;99.90;;;;;;5062790;28;20409;-82
2022/06/24 11:25:34;;;;;;;10.15;3.95;;;18.80;99.90;;;;;;5054239;28;20127;-80
2022/06/24 11:28:26;;;;;;;8.80;3.53;;;18.80;99.90;;;;;;5063286;28;20128;-80
2022/06/24 11:31:33;;;;;;;6.72;2.72;;;18.80;99.90;;;;;;5049567;28;20056;-81
2022/06/24 11:34:19;;;;;;;7.20;2.55;;;18.80;99.90;;;;;;5034378;28;20060;-81
2022/06/24 11:37:05;;;;;;;6.93;3.05;;;18.80;99.90;;;;;;5050350;28;20523;-81
2022/06/24 11:39:55;;;;;;;5.15;2.30;;;18.80;99.90;;;;;;5048419;28;20496;-80
2022/06/24 11:42:44;;;;;;;9.07;3.08;;;18.90;99.90;;;;;;5047793;28;20670;-79
2022/06/24 11:45:32;;;;;;;9.73;2.92;;;19.00;99.90;;;;;;5034851;28;20044;-82
2022/06/24 11:48:21;;;;;;;10.05;3.08;;;19.00;99.90;;;;;;5048811;28;20059;-83
2022/06/24 11:51:17;;;;;;;7.15;3.28;;;19.00;99.90;;;;;;5051591;28;20135;-80
2022/06/24 11:54:06;;;;;;;6.88;2.92;;;19.00;99.90;;;;;;5049934;28;20045;-81
2022/06/24 11:56:52;;;;;;;7.00;2.42;;;19.00;99.90;;;;;;5048349;28;20055;-80
2022/06/24 11:59:38;;;;;;;9.10;2.90;;;19.00;99.90;;;;;;5050080;28;20080;-80
2022/06/24 12:02:24;;;;;;;9.73;2.83;;;19.00;99.90;;;;;;5047250;28;20048;-81
2022/06/24 12:05:11;;;;;;;10.15;3.10;;;19.00;99.90;;;;;;5050240;28;20504;-84
2022/06/24 12:07:58;;;;;;;6.78;2.30;;;19.00;99.90;;;;;;5051980;28;20077;-81
2022/06/24 12:10:54;;;;;;;7.22;3.45;;;19.00;99.90;;;;;;5047881;28;20060;-79
2022/06/24 12:13:41;;;;;;;5.85;2.90;;;19.10;99.90;;;;;;5048332;28;20053;-80
2022/06/24 12:16:27;;;;;;;6.43;2.50;;;19.10;99.90;;;;;;5047796;28;20052;-81
2022/06/24 12:19:14;;;;;;;4.75;2.47;;;19.10;99.90;;;;;;5048342;28;20118;-81
2022/06/24 12:22:03;;;;;;;10.07;4.00;;;19.20;99.90;;;;;;5047938;28;20139;-82
2022/06/24 12:25:00;;;;;;;8.60;2.90;;;19.20;99.90;;;;;;5051790;28;20060;-79
2022/06/24 12:27:49;;;;;;;6.55;2.20;;;19.40;99.90;;;;;;5062572;28;20056;-80
2022/06/24 12:30:36;;;;;;;6.88;3.10;;;19.50;99.90;;;;;;5048241;28;20485;-79
2022/06/24 12:33:22;;;;;;;9.10;2.35;;;19.60;99.90;;;;;;5048324;28;20053;-78
2022/06/24 12:36:17;;;;;;;6.45;3.00;;;19.70;99.90;;;;;;5048778;28;20386;-80
2022/06/24 12:39:07;;;;;;;7.72;2.45;;;19.90;99.90;;;;;;5049017;28;20056;-82
2022/06/24 12:41:53;;;;;;;6.85;2.30;;;20.00;99.90;;;;;;5052521;28;20055;-80
2022/06/24 12:44:41;;;;;;;9.15;3.00;;;20.10;99.90;;;;;;5049894;28;20107;-80
2022/06/24 12:50:38;;;;;;;6.68;2.60;;;20.20;99.90;;;;;;5051832;28;20053;-80
2022/06/24 12:53:24;;;;;;;6.68;2.70;;;20.30;99.90;;;;;;5038259;28;20473;-82
2022/06/24 12:56:11;;;;;;;6.82;2.65;;;20.30;99.90;;;;;;5050746;28;20136;-81
2022/06/24 12:58:57;;;;;;;4.35;2.35;;;20.40;99.90;;;;;;5056199;28;20061;-83
2022/06/24 13:01:45;;;;;;;5.10;2.05;;;20.60;99.90;;;;;;5052525;28;20045;-81
2022/06/24 13:04:31;;;;;;;4.65;2.50;;;20.60;99.90;;;;;;5052589;28;20466;-82
2022/06/24 13:07:17;;;;;;;6.80;3.13;;;20.70;99.90;;;;;;5053333;28;20469;-81
2022/06/24 13:10:05;;;;;;;7.65;2.67;;;21.00;99.90;;;;;;5069249;28;20439;-81
2022/06/24 13:12:52;;;;;;;5.65;2.90;;;21.20;99.90;;;;;;5053542;28;20091;-81
2022/06/24 13:15:38;;;;;;;8.27;2.45;;;21.40;99.90;;;;;;5037505;28;20067;-80
2022/06/24 13:18:24;;;;;;;7.47;2.92;;;21.70;99.90;;;;;;5051736;28;20489;-83
2022/06/24 13:21:10;;;;;;;7.32;3.40;;;22.00;99.90;;;;;;5066097;28;20049;-80
2022/06/24 13:23:56;;;;;;;7.03;3.45;;;22.20;99.90;;;;;;5051347;28;20098;-83
2022/06/24 13:26:42;;;;;;;8.45;4.05;;;22.60;99.90;;;;;;5053120;28;20144;-82
2022/06/24 13:29:29;;;;;;;8.75;4.38;;;23.00;99.90;;;;;;5052849;28;20056;-82
2022/06/24 13:32:15;;;;;;;8.32;5.00;;;23.10;99.90;;;;;;5051697;28;20045;-82
2022/06/24 13:35:01;;;;;;;8.02;4.78;;;23.20;99.90;;;;;;5065788;28;20135;-82
2022/06/24 13:37:47;;;;;;;8.50;5.25;;;23.20;99.90;;;;;;5052984;28;20056;-81
2022/06/24 13:40:33;;;;;;;14.02;5.72;;;23.40;99.90;;;;;;5055876;28;20098;-82
2022/06/24 13:43:20;;;;;;;8.45;5.85;;;23.40;99.90;;;;;;5050376;28;20060;-82
2022/06/24 13:46:06;;;;;;;12.57;7.15;;;23.40;99.90;;;;;;5050031;28;20408;-82
2022/06/24 13:48:56;;;;;;;10.23;5.70;;;23.40;99.90;;;;;;5049397;28;20055;-83
2022/06/24 13:51:43;;;;;;;10.93;6.43;;;23.50;99.90;;;;;;5053414;28;20056;-82
2022/06/24 13:54:29;;;;;;;11.15;6.30;;;23.30;99.90;;;;;;5052999;28;20048;-83
2022/06/24 13:57:15;;;;;;;14.18;6.43;;;23.20;99.90;;;;;;5052498;28;20048;-82
2022/06/24 14:00:03;;;;;;;10.48;6.50;;;23.40;99.90;;;;;;5052801;28;20064;-82
2022/06/24 14:02:49;;;;;;;11.32;6.68;;;23.60;99.90;;;;;;5051245;28;20456;-82
2022/06/24 14:05:36;;;;;;;11.93;7.88;;;24.00;99.90;;;;;;5049731;28;20049;-82
2022/06/24 14:08:22;;;;;;;9.48;6.75;;;24.40;99.90;;;;;;5052565;28;20087;-83
2022/06/24 14:11:08;;;;;;;11.07;7.18;;;24.60;99.90;;;;;;5052348;28;20094;-83
2022/06/24 14:13:54;;;;;;;11.82;6.78;;;24.90;99.90;;;;;;5068515;28;20057;-83
2022/06/24 14:16:40;;;;;;;8.00;6.05;;;25.30;99.90;;;;;;5051791;28;20048;-82
2022/06/24 14:19:27;;;;;;;10.00;6.82;;;25.60;99.90;;;;;;5052500;28;20087;-82
2022/06/24 14:22:13;;;;;;;13.93;7.53;;;25.90;99.90;;;;;;5051790;28;20132;-82
2022/06/24 14:24:59;;;;;;;9.77;6.78;;;26.00;99.90;;;;;;5049743;28;20057;-81
2022/06/24 14:27:45;;;;;;;12.45;7.65;;;26.20;99.90;;;;;;5051101;28;20060;-82
2022/06/24 14:30:31;;;;;;;9.68;7.82;;;26.00;99.90;;;;;;5051175;28;20095;-82
2022/06/24 14:33:17;;;;;;;15.90;8.70;;;26.00;99.90;;;;;;5050396;28;20052;-82
2022/06/24 14:36:04;;;;;;;12.60;8.27;;;26.10;99.90;;;;;;5049933;28;20053;-82